createdAt,value
2022-11-15T00:00:57.010Z,59.73
2022-11-15T00:03:25.677Z,59.47
2022-11-15T00:05:52.873Z,64.53
2022-11-15T00:08:19.761Z,60.00
2022-11-15T00:11:00.083Z,67.43
2022-11-15T00:13:30.427Z,63.90
2022-11-15T00:16:01.915Z,62.37
2022-11-15T00:18:29.769Z,59.50
2022-11-15T00:20:56.795Z,63.07
2022-11-15T00:23:24.546Z,66.10
2022-11-15T00:25:58.569Z,63.97
2022-11-15T00:28:25.879Z,60.95
2022-11-15T00:30:52.945Z,62.67
2022-11-15T00:33:19.898Z,60.27
2022-11-15T00:35:46.519Z,66.93
2022-11-15T00:38:13.144Z,57.87
2022-11-15T00:40:39.724Z,62.43
2022-11-15T00:43:06.368Z,53.43
2022-11-15T00:45:34.086Z,63.40
2022-11-15T00:48:00.743Z,60.13
2022-11-15T00:50:27.440Z,63.17
2022-11-15T00:52:54.065Z,59.27
2022-11-15T00:55:20.759Z,64.40
2022-11-15T00:57:47.674Z,64.80
2022-11-15T01:00:14.515Z,58.20
2022-11-15T01:02:41.139Z,63.10
2022-11-15T01:05:08.934Z,64.40
2022-11-15T01:07:35.644Z,60.30
2022-11-15T01:10:02.279Z,63.73
2022-11-15T01:12:29.004Z,69.03
2022-11-15T01:14:55.642Z,66.27
2022-11-15T01:17:22.254Z,66.27
2022-11-15T01:19:48.862Z,63.17
2022-11-15T01:22:15.532Z,60.47
2022-11-15T01:24:42.214Z,63.87
2022-11-15T01:27:09.515Z,68.07
2022-11-15T01:29:36.113Z,56.93
2022-11-15T01:32:02.784Z,60.90
2022-11-15T01:34:29.410Z,61.23
2022-11-15T01:36:56.017Z,63.57
2022-11-15T01:39:22.849Z,63.23
2022-11-15T01:41:49.626Z,60.60
2022-11-15T01:44:34.562Z,64.53
2022-11-15T01:47:04.574Z,63.77
2022-11-15T01:49:33.705Z,59.10
2022-11-15T01:52:02.360Z,61.30
2022-11-15T01:54:29.137Z,58.83
2022-11-15T01:57:08.623Z,58.30
2022-11-15T01:59:35.360Z,56.97
2022-11-15T02:02:02.029Z,58.67
2022-11-15T02:04:54.967Z,55.73
2022-11-15T02:07:22.840Z,61.30
2022-11-15T02:09:50.026Z,60.73
2022-11-15T02:12:20.300Z,60.73
2022-11-15T02:14:50.428Z,59.83
2022-11-15T02:17:27.469Z,61.50
2022-11-15T02:20:11.940Z,54.13
2022-11-15T02:23:11.216Z,59.50
2022-11-15T02:26:15.583Z,61.77
2022-11-15T02:28:45.428Z,57.00
2022-11-15T02:31:12.513Z,60.53
2022-11-15T02:33:55.891Z,60.33
2022-11-15T02:36:41.381Z,55.47
2022-11-15T02:39:29.250Z,61.63
2022-11-15T02:42:26.815Z,58.63
2022-11-15T02:44:54.632Z,59.40
2022-11-15T02:47:22.199Z,56.23
2022-11-15T02:49:51.038Z,60.30
2022-11-15T02:52:18.721Z,57.03
2022-11-15T02:54:57.628Z,59.97
2022-11-15T02:57:40.286Z,58.00
2022-11-15T03:00:11.996Z,56.90
2022-11-15T03:02:50.166Z,58.87
2022-11-15T03:05:39.676Z,61.53
2022-11-15T03:08:23.503Z,52.07
2022-11-15T03:11:09.592Z,53.50
2022-11-15T03:13:37.734Z,63.77
2022-11-15T03:16:09.558Z,52.80
2022-11-15T03:18:51.251Z,60.53
2022-11-15T03:21:20.060Z,54.43
2022-11-15T03:23:48.422Z,53.00
2022-11-15T03:26:15.948Z,55.90
2022-11-15T03:28:55.041Z,51.27
2022-11-15T03:31:45.686Z,55.53
2022-11-15T03:34:32.823Z,50.57
2022-11-15T03:36:59.503Z,53.38
2022-11-15T03:39:26.653Z,51.40
2022-11-15T03:42:22.714Z,47.97
2022-11-15T03:44:53.680Z,48.43
2022-11-15T03:47:49.371Z,53.33
2022-11-15T03:50:18.833Z,49.83
2022-11-15T03:52:49.479Z,46.37
2022-11-15T03:55:20.793Z,51.97
2022-11-15T03:57:50.041Z,45.50
2022-11-15T04:00:16.863Z,51.73
2022-11-15T04:02:43.562Z,48.17
2022-11-15T04:05:10.237Z,46.20
2022-11-15T04:07:36.941Z,46.43
2022-11-15T04:10:04.676Z,46.97
2022-11-15T04:12:41.586Z,47.30
2022-11-15T04:15:12.911Z,49.07
2022-11-15T04:17:45.382Z,47.63
2022-11-15T04:20:35.229Z,45.07
2022-11-15T04:23:22.969Z,45.77
2022-11-15T04:25:53.029Z,45.60
2022-11-15T04:28:20.031Z,44.33
2022-11-15T04:30:46.710Z,46.17
2022-11-15T04:33:13.366Z,45.70
2022-11-15T04:35:40.304Z,43.87
2022-11-15T04:38:08.870Z,42.57
2022-11-15T04:40:36.397Z,44.07
2022-11-15T04:43:04.068Z,46.23
2022-11-15T04:45:31.543Z,48.10
2022-11-15T04:47:58.198Z,47.73
2022-11-15T04:50:24.784Z,46.87
2022-11-15T04:52:53.544Z,45.27
2022-11-15T04:55:20.490Z,47.20
2022-11-15T04:57:47.211Z,44.90
2022-11-15T05:00:16.091Z,48.17
2022-11-15T05:03:01.683Z,39.67
2022-11-15T05:05:28.670Z,43.17
2022-11-15T05:07:55.387Z,41.27
2022-11-15T05:10:22.516Z,42.27
2022-11-15T05:13:07.435Z,42.63
2022-11-15T05:16:00.037Z,42.63
2022-11-15T05:18:26.743Z,45.60
2022-11-15T05:20:53.365Z,46.67
2022-11-15T05:23:20.052Z,44.27
2022-11-15T05:25:46.696Z,47.90
2022-11-15T05:28:13.965Z,44.93
2022-11-15T05:30:40.587Z,43.97
2022-11-15T05:33:07.413Z,53.30
2022-11-15T05:35:39.184Z,41.17
2022-11-15T05:38:05.833Z,47.23
2022-11-15T05:40:33.213Z,49.07
2022-11-15T05:43:01.080Z,46.20
2022-11-15T05:45:27.717Z,45.20
2022-11-15T05:47:55.492Z,39.10
2022-11-15T05:50:22.173Z,43.27
2022-11-15T05:52:49.318Z,41.97
2022-11-15T05:55:16.315Z,42.37
2022-11-15T05:57:42.929Z,42.73
2022-11-15T06:00:10.514Z,48.23
2022-11-15T06:02:37.206Z,51.77
2022-11-15T06:05:04.328Z,51.53
2022-11-15T06:07:32.035Z,44.00
2022-11-15T06:09:58.691Z,41.97
2022-11-15T06:12:25.294Z,48.67
2022-11-15T06:14:51.902Z,44.80
2022-11-15T06:17:18.528Z,47.70
2022-11-15T06:19:45.140Z,43.43
2022-11-15T06:22:11.750Z,44.77
2022-11-15T06:24:38.351Z,41.23
2022-11-15T06:27:04.967Z,39.90
2022-11-15T06:29:31.632Z,42.60
2022-11-15T06:31:58.274Z,41.23
2022-11-15T06:34:24.940Z,43.10
2022-11-15T06:36:51.578Z,45.77
2022-11-15T06:39:18.246Z,41.27
2022-11-15T06:41:45.031Z,43.60
2022-11-15T06:44:11.634Z,39.40
2022-11-15T06:46:38.256Z,38.87
2022-11-15T06:49:09.355Z,37.93
2022-11-15T06:51:36.522Z,38.93
2022-11-15T06:54:03.209Z,36.60
2022-11-15T06:56:29.836Z,41.97
2022-11-15T06:58:56.581Z,38.23
2022-11-15T07:01:23.322Z,39.03
2022-11-15T07:03:49.976Z,37.60
2022-11-15T07:06:16.627Z,35.60
2022-11-15T07:08:43.330Z,36.53
2022-11-15T07:11:10.023Z,36.93
2022-11-15T07:13:38.303Z,40.00
2022-11-15T07:16:06.934Z,39.70
2022-11-15T07:18:37.976Z,35.77
2022-11-15T07:21:06.343Z,36.30
2022-11-15T07:23:33.559Z,38.37
2022-11-15T07:26:00.705Z,32.63
2022-11-15T07:28:27.647Z,35.60
2022-11-15T07:30:55.078Z,37.23
2022-11-15T07:33:21.735Z,37.87
2022-11-15T07:35:51.202Z,31.87
2022-11-15T07:38:21.288Z,35.43
2022-11-15T07:40:48.391Z,36.13
2022-11-15T07:43:15.060Z,33.73
2022-11-15T07:45:46.189Z,38.53
2022-11-15T07:48:12.890Z,35.30
2022-11-15T07:50:45.929Z,37.50
2022-11-15T07:53:12.833Z,35.77
2022-11-15T07:55:41.154Z,37.00
2022-11-15T07:58:10.119Z,32.43
2022-11-15T08:00:37.142Z,33.93
2022-11-15T08:03:11.639Z,36.37
2022-11-15T08:05:39.477Z,35.10
2022-11-15T08:08:06.764Z,38.10
2022-11-15T08:10:39.273Z,36.03
2022-11-15T08:13:10.071Z,36.58
2022-11-15T08:15:37.765Z,36.73
2022-11-15T08:18:07.533Z,37.13
2022-11-15T08:20:35.106Z,30.87
2022-11-15T08:23:04.100Z,33.97
2022-11-15T08:25:31.994Z,36.43
2022-11-15T08:28:01.447Z,33.70
2022-11-15T08:30:28.610Z,36.40
2022-11-15T08:32:57.329Z,36.10
2022-11-15T08:35:28.855Z,33.10
2022-11-15T08:37:56.186Z,38.87
2022-11-15T08:40:24.061Z,35.50
2022-11-15T08:42:50.746Z,35.70
2022-11-15T08:45:17.454Z,35.57
2022-11-15T08:47:44.045Z,36.07
2022-11-15T08:50:10.829Z,35.63
2022-11-15T08:52:37.423Z,38.27
2022-11-15T08:55:04.366Z,38.70
2022-11-15T08:57:33.811Z,36.73
2022-11-15T09:00:00.453Z,36.70
2022-11-15T09:02:27.115Z,34.63
2022-11-15T09:04:53.748Z,43.17
2022-11-15T09:07:20.429Z,36.10
2022-11-15T09:09:47.304Z,33.70
2022-11-15T09:12:13.962Z,30.97
2022-11-15T09:14:40.582Z,40.47
2022-11-15T09:17:09.719Z,36.93
2022-11-15T09:19:36.345Z,34.00
2022-11-15T09:22:02.945Z,30.97
2022-11-15T09:24:29.546Z,35.80
2022-11-15T09:26:56.153Z,40.27
2022-11-15T09:29:22.740Z,39.70
2022-11-15T09:31:49.546Z,38.40
2022-11-15T09:34:16.196Z,40.20
2022-11-15T09:36:42.979Z,35.43
2022-11-15T09:39:10.305Z,38.67
2022-11-15T09:41:58.993Z,34.47
2022-11-15T09:44:49.409Z,35.40
2022-11-15T09:47:37.064Z,41.07
2022-11-15T09:50:10.750Z,38.30
2022-11-15T09:52:37.872Z,36.03
2022-11-15T09:55:06.278Z,31.70
2022-11-15T09:57:35.822Z,39.90
2022-11-15T10:03:18.288Z,37.97
2022-11-15T10:05:47.496Z,34.07
2022-11-15T10:08:38.845Z,38.40
2022-11-15T10:14:01.632Z,37.07
2022-11-15T10:16:50.813Z,36.17
2022-11-15T10:19:27.161Z,31.43
2022-11-15T10:21:59.773Z,31.40
2022-11-15T10:24:31.861Z,28.87
2022-11-15T10:26:58.466Z,29.03
2022-11-15T10:29:27.168Z,31.47
2022-11-15T10:31:54.077Z,29.17
2022-11-15T10:34:22.936Z,31.93
2022-11-15T10:36:57.096Z,30.00
2022-11-15T10:39:24.134Z,25.13
2022-11-15T10:41:51.235Z,26.02
2022-11-15T10:44:17.738Z,26.10
2022-11-15T10:46:49.028Z,21.98
2022-11-15T10:49:22.908Z,26.33
2022-11-15T10:51:54.524Z,21.65
2022-11-15T10:55:00.022Z,22.75
2022-11-15T10:57:33.104Z,22.27
2022-11-15T11:00:07.017Z,24.83
2022-11-15T11:02:55.550Z,19.45
2022-11-15T11:05:41.785Z,21.02
2022-11-15T11:08:15.583Z,23.60
2022-11-15T11:11:01.970Z,21.77
2022-11-15T11:13:34.870Z,19.83
2022-11-15T11:16:20.309Z,17.27
2022-11-15T11:19:02.221Z,21.02
2022-11-15T11:21:57.427Z,20.73
2022-11-15T11:24:37.947Z,19.40
2022-11-15T11:27:23.325Z,18.15
2022-11-15T11:30:00.260Z,17.60
2022-11-15T11:32:42.195Z,18.38
2022-11-15T11:35:27.301Z,20.73
2022-11-15T11:38:28.851Z,16.98
2022-11-15T11:41:05.482Z,20.35
2022-11-15T11:43:56.907Z,18.10
2022-11-15T11:46:51.328Z,15.80
2022-11-15T11:49:20.251Z,16.33
2022-11-15T11:52:03.672Z,18.23
2022-11-15T11:54:57.561Z,15.70
2022-11-15T11:57:32.671Z,14.47
2022-11-15T12:00:05.194Z,16.40
2022-11-15T12:02:40.111Z,16.15
2022-11-15T12:05:19.484Z,19.17
2022-11-15T12:07:47.534Z,15.55
2022-11-15T12:10:21.007Z,16.65
2022-11-15T12:12:57.033Z,17.08
2022-11-15T12:15:27.433Z,14.93
2022-11-15T12:17:56.461Z,15.02
2022-11-15T12:20:31.657Z,17.75
2022-11-15T12:23:04.863Z,18.45
2022-11-15T12:25:38.314Z,16.00
2022-11-15T12:28:22.025Z,15.43
2022-11-15T12:30:52.722Z,16.95
2022-11-15T12:33:35.111Z,14.45
2022-11-15T12:36:26.905Z,16.27
2022-11-15T12:38:57.655Z,15.77
2022-11-15T12:41:35.355Z,17.10
2022-11-15T12:44:03.773Z,17.83
2022-11-15T12:46:30.482Z,17.08
2022-11-15T12:49:10.595Z,15.25
2022-11-15T12:51:43.481Z,16.15
2022-11-15T12:54:25.419Z,17.35
2022-11-15T12:57:04.493Z,17.55
2022-11-15T12:59:59.674Z,17.38
2022-11-15T13:02:28.132Z,19.95
2022-11-15T13:05:19.516Z,19.40
2022-11-15T13:07:46.172Z,18.55
2022-11-15T13:10:12.782Z,21.35
2022-11-15T13:12:42.668Z,20.08
2022-11-15T13:15:12.381Z,19.05
2022-11-15T13:17:55.318Z,16.77
2022-11-15T13:20:33.328Z,17.70
2022-11-15T13:23:18.445Z,21.88
2022-11-15T13:26:08.055Z,21.63
2022-11-15T13:28:38.808Z,19.25
2022-11-15T13:31:29.897Z,20.30
2022-11-15T13:34:00.780Z,20.13
2022-11-15T13:36:30.683Z,17.42
2022-11-15T13:39:12.277Z,20.15
2022-11-15T13:41:47.435Z,20.90
2022-11-15T13:44:24.780Z,19.77
2022-11-15T13:47:04.622Z,21.50
2022-11-15T13:49:33.110Z,24.10
2022-11-15T13:52:01.336Z,22.63
2022-11-15T13:54:27.857Z,21.25
2022-11-15T13:56:57.016Z,22.70
2022-11-15T13:59:29.675Z,21.27
2022-11-15T14:01:58.185Z,20.33
2022-11-15T14:04:26.765Z,19.63
2022-11-15T14:06:56.698Z,22.52
2022-11-15T14:09:34.853Z,24.27
2022-11-15T14:12:03.678Z,24.50
2022-11-15T14:14:31.091Z,20.98
2022-11-15T14:17:01.748Z,25.63
2022-11-15T14:19:28.358Z,29.00
2022-11-15T14:22:14.304Z,30.05
2022-11-15T14:24:42.382Z,26.45
2022-11-15T14:27:27.270Z,30.02
2022-11-15T14:29:54.421Z,23.73
2022-11-15T14:32:26.908Z,24.88
2022-11-15T14:35:01.868Z,25.27
2022-11-15T14:37:34.042Z,22.13
2022-11-15T14:40:00.912Z,24.57
2022-11-15T14:42:27.671Z,27.90
2022-11-15T14:44:54.272Z,26.20
2022-11-15T14:47:21.170Z,29.90
2022-11-15T14:49:48.265Z,28.43
2022-11-15T14:52:35.320Z,26.88
2022-11-15T14:55:04.144Z,32.10
2022-11-15T14:57:31.543Z,33.50
2022-11-15T14:59:58.154Z,32.00
2022-11-15T15:02:26.189Z,33.07
2022-11-15T15:04:53.129Z,36.60
2022-11-15T15:07:20.273Z,34.50
2022-11-15T15:09:47.341Z,33.33
2022-11-15T15:12:18.424Z,37.80
2022-11-15T15:14:46.196Z,33.67
2022-11-15T15:17:13.187Z,36.93
2022-11-15T15:19:39.771Z,34.90
2022-11-15T15:22:06.896Z,39.90
2022-11-15T15:24:33.572Z,35.37
2022-11-15T15:27:08.252Z,40.27
2022-11-15T15:29:37.025Z,36.93
2022-11-15T15:32:04.363Z,35.87
2022-11-15T15:34:31.271Z,43.03
2022-11-15T15:37:24.931Z,40.17
2022-11-15T15:39:56.370Z,39.90
2022-11-15T15:42:23.907Z,38.03
2022-11-15T15:44:51.101Z,34.77
2022-11-15T15:47:22.673Z,34.00
2022-11-15T15:49:50.181Z,32.83
2022-11-15T15:52:17.270Z,36.60
2022-11-15T15:54:43.985Z,37.27
2022-11-15T15:57:13.598Z,36.57
2022-11-15T15:59:40.230Z,37.47
2022-11-15T16:02:07.256Z,40.03
2022-11-15T16:04:33.870Z,38.27
2022-11-15T16:07:01.320Z,36.40
2022-11-15T16:09:46.578Z,38.80
2022-11-15T16:12:13.228Z,39.80
2022-11-15T16:14:39.998Z,35.07
2022-11-15T16:17:06.836Z,39.50
2022-11-15T16:19:33.463Z,36.93
2022-11-15T16:22:00.101Z,33.83
2022-11-15T16:24:29.901Z,35.93
2022-11-15T16:26:56.539Z,40.20
2022-11-15T16:29:23.234Z,38.87
2022-11-15T16:31:51.246Z,43.20
2022-11-15T16:34:18.630Z,41.23
2022-11-15T16:36:45.351Z,39.17
2022-11-15T16:39:14.225Z,42.50
2022-11-15T16:41:41.521Z,44.93
2022-11-15T16:44:08.265Z,37.63
2022-11-15T16:46:35.338Z,43.43
2022-11-15T16:49:13.270Z,34.30
2022-11-15T16:51:41.539Z,35.40
2022-11-15T16:54:08.548Z,33.80
2022-11-15T16:56:35.171Z,35.43
2022-11-15T16:59:01.983Z,38.33
2022-11-15T17:01:31.280Z,33.87
2022-11-15T17:03:58.047Z,38.87
2022-11-15T17:06:26.359Z,36.57
2022-11-15T17:08:53.183Z,38.93
2022-11-15T17:11:21.424Z,39.63
2022-11-15T17:13:49.545Z,44.13
2022-11-15T17:16:18.284Z,42.13
2022-11-15T17:18:45.729Z,43.10
2022-11-15T17:21:15.404Z,44.47
2022-11-15T17:23:42.797Z,48.23
2022-11-15T17:26:28.833Z,42.90
2022-11-15T17:28:57.518Z,59.13
2022-11-15T17:31:25.438Z,47.73
2022-11-15T17:33:52.148Z,57.67
2022-11-15T17:36:18.775Z,49.20
2022-11-15T17:38:50.336Z,68.77
2022-11-15T17:41:17.151Z,56.87
2022-11-15T17:43:43.856Z,48.50
2022-11-15T17:46:16.370Z,41.33
2022-11-15T17:48:44.288Z,47.20
2022-11-15T17:51:12.626Z,44.00
2022-11-15T17:53:42.089Z,42.53
2022-11-15T17:56:14.209Z,47.90
2022-11-15T17:58:41.321Z,43.93
2022-11-15T18:01:17.438Z,46.07
2022-11-15T18:03:44.418Z,48.37
2022-11-15T18:06:11.325Z,48.73
2022-11-15T18:08:39.320Z,47.63
2022-11-15T18:11:14.421Z,46.80
2022-11-15T18:13:49.514Z,45.03
2022-11-15T18:16:20.557Z,43.20
2022-11-15T18:18:47.262Z,46.67
2022-11-15T18:21:14.864Z,46.37
2022-11-15T18:23:43.599Z,43.90
2022-11-15T18:26:12.479Z,43.40
2022-11-15T18:28:41.329Z,45.37
2022-11-15T18:31:22.061Z,45.10
2022-11-15T18:33:49.960Z,42.10
2022-11-15T18:36:19.419Z,41.63
2022-11-15T18:38:46.439Z,44.37
2022-11-15T18:41:17.888Z,38.43
2022-11-15T18:43:45.040Z,46.27
2022-11-15T18:46:14.055Z,42.93
2022-11-15T18:48:42.960Z,41.90
2022-11-15T18:51:12.272Z,41.57
2022-11-15T18:53:39.672Z,41.53
2022-11-15T18:56:09.005Z,47.23
2022-11-15T18:58:42.077Z,39.03
2022-11-15T19:01:12.372Z,34.17
2022-11-15T19:03:40.945Z,39.57
2022-11-15T19:06:12.460Z,40.87
2022-11-15T19:08:40.147Z,37.10
2022-11-15T19:11:13.934Z,38.07
2022-11-15T19:13:40.943Z,36.75
2022-11-15T19:16:08.225Z,39.67
2022-11-15T19:18:34.841Z,37.40
2022-11-15T19:21:14.836Z,43.63
2022-11-15T19:23:43.342Z,44.03
2022-11-15T19:26:15.448Z,37.33
2022-11-15T19:28:43.056Z,36.30
2022-11-15T19:31:17.018Z,38.27
2022-11-15T19:33:44.854Z,38.55
2022-11-15T19:36:15.716Z,36.83
2022-11-15T19:38:42.863Z,31.13
2022-11-15T19:41:14.867Z,35.03
2022-11-15T19:43:41.699Z,37.27
2022-11-15T19:46:11.059Z,35.90
2022-11-15T19:48:38.313Z,39.37
2022-11-15T19:51:11.223Z,35.40
2022-11-15T19:53:38.549Z,38.37
2022-11-15T19:56:07.639Z,32.70
2022-11-15T19:58:34.804Z,36.90
2022-11-15T20:01:03.480Z,36.27
2022-11-15T20:03:31.471Z,33.10
2022-11-15T20:06:09.033Z,34.87
2022-11-15T20:08:36.662Z,39.03
2022-11-15T20:11:04.370Z,38.70
2022-11-15T20:13:31.628Z,40.17
2022-11-15T20:15:58.547Z,40.07
2022-11-15T20:18:25.956Z,41.30
2022-11-15T20:20:52.795Z,37.27
2022-11-15T20:23:19.400Z,35.60
2022-11-15T20:25:47.424Z,42.60
2022-11-15T20:28:20.443Z,38.70
2022-11-15T20:30:47.924Z,35.93
2022-11-15T20:33:14.859Z,40.40
2022-11-15T20:35:41.624Z,41.23
2022-11-15T20:38:08.457Z,35.47
2022-11-15T20:40:35.414Z,41.67
2022-11-15T20:43:02.561Z,44.07
2022-11-15T20:45:29.345Z,41.70
2022-11-15T20:47:56.955Z,41.83
2022-11-15T20:50:41.468Z,35.10
2022-11-15T20:53:10.796Z,40.73
2022-11-15T20:55:48.454Z,42.50
2022-11-15T20:58:16.111Z,41.07
2022-11-15T21:00:44.836Z,47.50
2022-11-15T21:03:12.637Z,41.23
2022-11-15T21:05:40.954Z,40.40
2022-11-15T21:08:08.134Z,37.30
2022-11-15T21:10:53.610Z,37.87
2022-11-15T21:13:20.368Z,45.83
2022-11-15T21:15:47.227Z,41.67
2022-11-15T21:18:14.478Z,40.10
2022-11-15T21:20:41.602Z,37.77
2022-11-15T21:23:08.269Z,39.33
2022-11-15T21:25:34.951Z,37.67
2022-11-15T21:28:01.733Z,38.30
2022-11-15T21:30:28.349Z,37.83
2022-11-15T21:32:55.140Z,39.87
2022-11-15T21:35:22.653Z,41.20
2022-11-15T21:37:54.990Z,42.10
2022-11-15T21:40:23.265Z,35.70
2022-11-15T21:42:50.028Z,42.57
2022-11-15T21:45:16.805Z,37.60
2022-11-15T21:47:46.276Z,39.03
2022-11-15T21:50:14.230Z,34.20
2022-11-15T21:52:41.507Z,36.77
2022-11-15T21:55:08.855Z,32.17
2022-11-15T21:57:35.794Z,34.03
2022-11-15T22:00:21.290Z,31.80
2022-11-15T22:02:47.993Z,33.57
2022-11-15T22:05:14.666Z,33.90
2022-11-15T22:07:41.292Z,36.53
2022-11-15T22:10:08.425Z,34.30
2022-11-15T22:12:35.660Z,37.03
2022-11-15T22:15:02.347Z,29.23
2022-11-15T22:17:48.949Z,36.87
2022-11-15T22:20:42.995Z,35.73
2022-11-15T22:23:02.798Z,36.70
2022-11-15T22:25:29.382Z,33.97
2022-11-15T22:27:56.098Z,34.07
2022-11-15T22:30:24.171Z,36.50
2022-11-15T22:32:50.791Z,41.33
2022-11-15T22:35:17.469Z,37.03
2022-11-15T22:37:44.703Z,34.07
2022-11-15T22:40:11.402Z,33.10
2022-11-15T22:42:38.086Z,33.87
2022-11-15T22:45:04.993Z,34.10
2022-11-15T22:47:31.691Z,36.03
2022-11-15T22:49:58.368Z,33.67
2022-11-15T22:52:24.979Z,33.93
2022-11-15T22:54:51.724Z,36.40
2022-11-15T22:57:18.461Z,35.10
2022-11-15T22:59:45.912Z,38.23
2022-11-15T23:02:12.615Z,37.70
2022-11-15T23:04:39.235Z,33.07
2022-11-15T23:07:08.771Z,36.13
2022-11-15T23:09:35.495Z,34.53
2022-11-15T23:12:20.875Z,37.17
2022-11-15T23:14:47.665Z,33.60
2022-11-15T23:17:14.802Z,37.37
2022-11-15T23:19:41.420Z,38.47
2022-11-15T23:22:27.001Z,35.40
2022-11-15T23:24:53.686Z,35.43
2022-11-15T23:27:21.274Z,40.27
2022-11-15T23:30:06.636Z,33.80
2022-11-15T23:32:52.129Z,34.50
2022-11-15T23:35:19.016Z,36.57
2022-11-15T23:37:47.081Z,33.77
2022-11-15T23:40:15.968Z,37.80
2022-11-15T23:42:42.991Z,39.90
2022-11-15T23:45:09.651Z,39.03
2022-11-15T23:47:39.437Z,32.50
2022-11-15T23:50:06.998Z,35.87
2022-11-15T23:52:33.674Z,40.60
2022-11-15T23:55:00.401Z,35.30
2022-11-15T23:57:27.083Z,36.10
2022-11-15T23:59:54.117Z,41.70
